CYKY

Kindersley Airport

Kindersley, Saskatchewan, Canada
METAR CYKY 201500Z 24008KT 15SM SCT070 M18/M23 A2994 RMK AC4 SLP210
Observed Flight Rules
Feb-20 @ 15:00 UTC (22 hours ago) Visual Flight Rules
Wind Visibility Clouds
240° at 8 knots 15 miles
  • Scattered at 7,000' AGL
Temperatures Readings
Current -18°C / 0°F
Dewpoint -23°C / -9°F
Humidity 65%
Altimeter 29.94" Hg
Pressure 1021 hPa
Elevation 694
METAR CYKY 201500Z 24008KT 15SM SCT070 M18/M23 A2994 RMK AC4 SLP210
Observed Flight Rules
Feb-20 @ 15:00 UTC
(22 hours ago)
VFR
Wind Visibility
240° at 8 knots 15 miles
Clouds
  • Scattered at 7,000' AGL
Temperature Dewpoint
-18°C / 0°F -23°C / -9°F
Humidity Altimeter Pressure
65% 29.94" Hg 1021 hPa